sensor_id;sensor_type;location;lat;lon;timestamp;P1;durP1;ratioP1;P2;durP2;ratioP2
3601;SDS011;1815;50.950;6.920;2024-01-10T00:01:33;12.93;;;6.18;;
3601;SDS011;1815;50.950;6.920;2024-01-10T00:03:59;8.87;;;5.63;;
3601;SDS011;1815;50.950;6.920;2024-01-10T00:06:26;9.77;;;6.43;;
3601;SDS011;1815;50.950;6.920;2024-01-10T00:08:51;9.37;;;5.97;;
3601;SDS011;1815;50.950;6.920;2024-01-10T00:11:17;10.07;;;6.57;;
3601;SDS011;1815;50.950;6.920;2024-01-10T00:13:44;9.20;;;5.85;;
3601;SDS011;1815;50.950;6.920;2024-01-10T00:16:12;8.50;;;5.47;;
3601;SDS011;1815;50.950;6.920;2024-01-10T00:18:39;8.63;;;5.70;;
3601;SDS011;1815;50.950;6.920;2024-01-10T00:21:05;8.57;;;6.03;;
3601;SDS011;1815;50.950;6.920;2024-01-10T00:23:32;8.20;;;5.88;;
3601;SDS011;1815;50.950;6.920;2024-01-10T00:25:57;9.20;;;6.83;;
3601;SDS011;1815;50.950;6.920;2024-01-10T00:28:23;9.27;;;5.97;;
3601;SDS011;1815;50.950;6.920;2024-01-10T00:30:50;8.85;;;5.82;;
3601;SDS011;1815;50.950;6.920;2024-01-10T00:33:15;8.37;;;5.00;;
3601;SDS011;1815;50.950;6.920;2024-01-10T00:35:41;8.20;;;6.07;;
3601;SDS011;1815;50.950;6.920;2024-01-10T00:38:07;11.23;;;6.20;;
3601;SDS011;1815;50.950;6.920;2024-01-10T00:40:33;8.48;;;5.32;;
3601;SDS011;1815;50.950;6.920;2024-01-10T00:42:59;8.33;;;6.00;;
3601;SDS011;1815;50.950;6.920;2024-01-10T00:45:24;9.97;;;6.27;;
3601;SDS011;1815;50.950;6.920;2024-01-10T00:47:50;6.60;;;5.50;;
3601;SDS011;1815;50.950;6.920;2024-01-10T00:50:16;6.88;;;5.35;;
3601;SDS011;1815;50.950;6.920;2024-01-10T00:52:43;11.27;;;6.07;;
3601;SDS011;1815;50.950;6.920;2024-01-10T00:55:10;7.82;;;5.88;;
3601;SDS011;1815;50.950;6.920;2024-01-10T00:57:35;11.50;;;6.00;;
3601;SDS011;1815;50.950;6.920;2024-01-10T01:00:06;9.50;;;6.50;;
3601;SDS011;1815;50.950;6.920;2024-01-10T01:02:33;8.18;;;5.55;;
3601;SDS011;1815;50.950;6.920;2024-01-10T01:04:59;8.27;;;4.93;;
3601;SDS011;1815;50.950;6.920;2024-01-10T01:07:25;11.40;;;6.00;;
3601;SDS011;1815;50.950;6.920;2024-01-10T01:09:51;7.53;;;4.90;;
3601;SDS011;1815;50.950;6.920;2024-01-10T01:12:17;7.33;;;5.23;;
3601;SDS011;1815;50.950;6.920;2024-01-10T01:14:43;8.53;;;4.97;;
3601;SDS011;1815;50.950;6.920;2024-01-10T01:17:08;10.50;;;6.20;;
3601;SDS011;1815;50.950;6.920;2024-01-10T01:19:34;7.60;;;5.33;;
3601;SDS011;1815;50.950;6.920;2024-01-10T01:22:00;8.43;;;5.27;;
3601;SDS011;1815;50.950;6.920;2024-01-10T01:24:26;10.30;;;6.33;;
3601;SDS011;1815;50.950;6.920;2024-01-10T01:26:51;6.57;;;5.23;;
3601;SDS011;1815;50.950;6.920;2024-01-10T01:29:17;8.03;;;5.10;;
3601;SDS011;1815;50.950;6.920;2024-01-10T01:31:43;7.45;;;5.25;;
3601;SDS011;1815;50.950;6.920;2024-01-10T01:34:09;7.00;;;5.28;;
3601;SDS011;1815;50.950;6.920;2024-01-10T01:36:35;9.07;;;5.57;;
3601;SDS011;1815;50.950;6.920;2024-01-10T01:39:01;9.30;;;5.80;;
3601;SDS011;1815;50.950;6.920;2024-01-10T01:41:27;5.40;;;4.78;;
3601;SDS011;1815;50.950;6.920;2024-01-10T01:43:52;7.83;;;4.90;;
3601;SDS011;1815;50.950;6.920;2024-01-10T01:46:18;7.87;;;5.30;;
3601;SDS011;1815;50.950;6.920;2024-01-10T01:48:44;6.73;;;5.30;;
3601;SDS011;1815;50.950;6.920;2024-01-10T01:51:11;8.15;;;5.50;;
3601;SDS011;1815;50.950;6.920;2024-01-10T01:53:39;6.95;;;5.05;;
3601;SDS011;1815;50.950;6.920;2024-01-10T01:56:06;8.65;;;5.95;;
3601;SDS011;1815;50.950;6.920;2024-01-10T01:58:33;8.98;;;5.45;;
3601;SDS011;1815;50.950;6.920;2024-01-10T02:01:04;6.22;;;4.38;;
3601;SDS011;1815;50.950;6.920;2024-01-10T02:03:32;6.75;;;4.82;;
3601;SDS011;1815;50.950;6.920;2024-01-10T02:06:01;7.28;;;5.10;;
3601;SDS011;1815;50.950;6.920;2024-01-10T02:08:34;9.13;;;5.05;;
3601;SDS011;1815;50.950;6.920;2024-01-10T02:11:01;5.93;;;4.40;;
3601;SDS011;1815;50.950;6.920;2024-01-10T02:13:28;8.35;;;5.28;;
3601;SDS011;1815;50.950;6.920;2024-01-10T02:15:55;10.07;;;5.00;;
3601;SDS011;1815;50.950;6.920;2024-01-10T02:18:21;7.35;;;5.20;;
3601;SDS011;1815;50.950;6.920;2024-01-10T02:20:47;6.67;;;4.87;;
3601;SDS011;1815;50.950;6.920;2024-01-10T02:23:12;6.13;;;4.83;;
3601;SDS011;1815;50.950;6.920;2024-01-10T02:25:38;6.97;;;5.10;;
3601;SDS011;1815;50.950;6.920;2024-01-10T02:28:05;7.22;;;4.90;;
3601;SDS011;1815;50.950;6.920;2024-01-10T02:30:32;5.88;;;4.45;;
3601;SDS011;1815;50.950;6.920;2024-01-10T02:32:58;7.70;;;5.30;;
3601;SDS011;1815;50.950;6.920;2024-01-10T02:35:24;7.20;;;4.90;;
3601;SDS011;1815;50.950;6.920;2024-01-10T02:37:49;8.17;;;5.80;;
3601;SDS011;1815;50.950;6.920;2024-01-10T02:40:16;8.10;;;6.15;;
3601;SDS011;1815;50.950;6.920;2024-01-10T02:42:42;8.25;;;5.28;;
3601;SDS011;1815;50.950;6.920;2024-01-10T02:45:08;10.20;;;5.80;;
3601;SDS011;1815;50.950;6.920;2024-01-10T02:47:35;8.88;;;5.95;;
3601;SDS011;1815;50.950;6.920;2024-01-10T02:50:02;6.88;;;4.88;;
3601;SDS011;1815;50.950;6.920;2024-01-10T02:52:29;7.43;;;4.63;;
3601;SDS011;1815;50.950;6.920;2024-01-10T02:54:54;8.60;;;4.80;;
3601;SDS011;1815;50.950;6.920;2024-01-10T02:57:20;9.33;;;5.90;;
3601;SDS011;1815;50.950;6.920;2024-01-10T02:59:46;8.57;;;6.17;;
3601;SDS011;1815;50.950;6.920;2024-01-10T03:02:11;9.00;;;5.30;;
3601;SDS011;1815;50.950;6.920;2024-01-10T03:04:37;6.80;;;4.53;;
3601;SDS011;1815;50.950;6.920;2024-01-10T03:07:03;8.93;;;5.68;;
3601;SDS011;1815;50.950;6.920;2024-01-10T03:09:29;8.00;;;5.00;;
3601;SDS011;1815;50.950;6.920;2024-01-10T03:11:54;8.17;;;5.00;;
3601;SDS011;1815;50.950;6.920;2024-01-10T03:14:20;9.03;;;6.53;;
3601;SDS011;1815;50.950;6.920;2024-01-10T03:16:47;7.90;;;5.28;;
3601;SDS011;1815;50.950;6.920;2024-01-10T03:19:12;9.20;;;5.93;;
3601;SDS011;1815;50.950;6.920;2024-01-10T03:21:39;7.30;;;5.50;;
3601;SDS011;1815;50.950;6.920;2024-01-10T03:24:05;9.27;;;5.68;;
3601;SDS011;1815;50.950;6.920;2024-01-10T03:26:30;10.55;;;5.88;;
3601;SDS011;1815;50.950;6.920;2024-01-10T03:28:56;8.63;;;6.30;;
3601;SDS011;1815;50.950;6.920;2024-01-10T03:31:22;7.85;;;5.20;;
3601;SDS011;1815;50.950;6.920;2024-01-10T03:33:48;8.50;;;5.75;;
3601;SDS011;1815;50.950;6.920;2024-01-10T03:36:17;6.28;;;4.93;;
3601;SDS011;1815;50.950;6.920;2024-01-10T03:38:44;7.88;;;4.95;;
3601;SDS011;1815;50.950;6.920;2024-01-10T03:41:16;7.85;;;5.15;;
3601;SDS011;1815;50.950;6.920;2024-01-10T03:43:43;8.20;;;4.78;;
3601;SDS011;1815;50.950;6.920;2024-01-10T03:46:09;6.73;;;5.37;;
3601;SDS011;1815;50.950;6.920;2024-01-10T03:48:35;7.93;;;5.93;;
3601;SDS011;1815;50.950;6.920;2024-01-10T03:51:02;5.63;;;4.47;;
3601;SDS011;1815;50.950;6.920;2024-01-10T03:53:28;6.75;;;5.50;;
3601;SDS011;1815;50.950;6.920;2024-01-10T03:55:55;10.80;;;6.15;;
3601;SDS011;1815;50.950;6.920;2024-01-10T03:58:20;7.10;;;5.43;;
3601;SDS011;1815;50.950;6.920;2024-01-10T04:00:46;8.47;;;5.77;;
3601;SDS011;1815;50.950;6.920;2024-01-10T04:03:11;7.93;;;4.80;;
3601;SDS011;1815;50.950;6.920;2024-01-10T04:05:37;7.93;;;5.37;;
3601;SDS011;1815;50.950;6.920;2024-01-10T04:08:03;9.80;;;5.70;;
3601;SDS011;1815;50.950;6.920;2024-01-10T04:10:29;8.38;;;5.65;;
3601;SDS011;1815;50.950;6.920;2024-01-10T04:12:55;8.17;;;5.47;;
3601;SDS011;1815;50.950;6.920;2024-01-10T04:15:20;8.90;;;5.53;;
3601;SDS011;1815;50.950;6.920;2024-01-10T04:17:46;7.93;;;5.67;;
3601;SDS011;1815;50.950;6.920;2024-01-10T04:20:12;8.45;;;5.00;;
3601;SDS011;1815;50.950;6.920;2024-01-10T04:22:38;7.77;;;5.80;;
3601;SDS011;1815;50.950;6.920;2024-01-10T04:25:05;7.33;;;5.23;;
3601;SDS011;1815;50.950;6.920;2024-01-10T04:27:32;7.85;;;5.35;;
3601;SDS011;1815;50.950;6.920;2024-01-10T04:29:58;10.83;;;5.40;;
3601;SDS011;1815;50.950;6.920;2024-01-10T04:32:24;7.73;;;5.27;;
3601;SDS011;1815;50.950;6.920;2024-01-10T04:34:49;10.13;;;5.45;;
3601;SDS011;1815;50.950;6.920;2024-01-10T04:37:15;8.93;;;5.77;;
3601;SDS011;1815;50.950;6.920;2024-01-10T04:39:41;8.73;;;5.10;;
3601;SDS011;1815;50.950;6.920;2024-01-10T04:42:13;5.93;;;5.15;;
3601;SDS011;1815;50.950;6.920;2024-01-10T04:44:39;8.23;;;5.53;;
3601;SDS011;1815;50.950;6.920;2024-01-10T04:47:05;7.33;;;5.33;;
3601;SDS011;1815;50.950;6.920;2024-01-10T04:49:31;7.82;;;5.40;;
3601;SDS011;1815;50.950;6.920;2024-01-10T04:51:56;8.97;;;4.80;;
3601;SDS011;1815;50.950;6.920;2024-01-10T04:54:22;10.37;;;5.20;;
3601;SDS011;1815;50.950;6.920;2024-01-10T04:56:48;8.93;;;5.70;;
3601;SDS011;1815;50.950;6.920;2024-01-10T04:59:13;7.60;;;4.90;;
3601;SDS011;1815;50.950;6.920;2024-01-10T05:01:39;6.27;;;4.13;;
3601;SDS011;1815;50.950;6.920;2024-01-10T05:04:05;5.97;;;4.83;;
3601;SDS011;1815;50.950;6.920;2024-01-10T05:06:31;8.80;;;5.43;;
3601;SDS011;1815;50.950;6.920;2024-01-10T05:08:57;8.70;;;5.30;;
3601;SDS011;1815;50.950;6.920;2024-01-10T05:11:23;10.15;;;4.68;;
3601;SDS011;1815;50.950;6.920;2024-01-10T05:13:50;10.77;;;5.10;;
3601;SDS011;1815;50.950;6.920;2024-01-10T05:16:16;10.10;;;5.38;;
3601;SDS011;1815;50.950;6.920;2024-01-10T05:18:42;8.50;;;5.38;;
3601;SDS011;1815;50.950;6.920;2024-01-10T05:21:08;6.20;;;4.40;;
3601;SDS011;1815;50.950;6.920;2024-01-10T05:23:33;7.80;;;5.30;;
3601;SDS011;1815;50.950;6.920;2024-01-10T05:25:59;8.70;;;5.03;;
3601;SDS011;1815;50.950;6.920;2024-01-10T05:28:26;6.63;;;4.68;;
3601;SDS011;1815;50.950;6.920;2024-01-10T05:30:51;9.23;;;5.67;;
3601;SDS011;1815;50.950;6.920;2024-01-10T05:33:17;8.00;;;5.33;;
3601;SDS011;1815;50.950;6.920;2024-01-10T05:35:43;8.27;;;5.23;;
3601;SDS011;1815;50.950;6.920;2024-01-10T05:38:08;7.10;;;4.73;;
3601;SDS011;1815;50.950;6.920;2024-01-10T05:40:34;6.67;;;5.03;;
3601;SDS011;1815;50.950;6.920;2024-01-10T05:43:00;8.97;;;5.50;;
3601;SDS011;1815;50.950;6.920;2024-01-10T05:45:26;8.40;;;5.80;;
3601;SDS011;1815;50.950;6.920;2024-01-10T05:47:53;10.00;;;5.30;;
3601;SDS011;1815;50.950;6.920;2024-01-10T05:50:19;6.65;;;5.20;;
3601;SDS011;1815;50.950;6.920;2024-01-10T05:52:45;7.03;;;5.70;;
3601;SDS011;1815;50.950;6.920;2024-01-10T05:55:12;10.15;;;5.70;;
3601;SDS011;1815;50.950;6.920;2024-01-10T05:57:38;6.47;;;4.93;;
3601;SDS011;1815;50.950;6.920;2024-01-10T06:00:04;7.70;;;5.22;;
3601;SDS011;1815;50.950;6.920;2024-01-10T06:02:38;8.18;;;5.25;;
3601;SDS011;1815;50.950;6.920;2024-01-10T06:05:07;6.28;;;4.95;;
3601;SDS011;1815;50.950;6.920;2024-01-10T06:07:34;10.05;;;5.45;;
3601;SDS011;1815;50.950;6.920;2024-01-10T06:10:03;11.57;;;6.07;;
3601;SDS011;1815;50.950;6.920;2024-01-10T06:12:29;7.50;;;4.75;;
3601;SDS011;1815;50.950;6.920;2024-01-10T06:14:55;9.40;;;5.20;;
3601;SDS011;1815;50.950;6.920;2024-01-10T06:17:21;11.00;;;6.60;;
3601;SDS011;1815;50.950;6.920;2024-01-10T06:19:47;8.85;;;5.70;;
3601;SDS011;1815;50.950;6.920;2024-01-10T06:22:12;7.93;;;6.20;;
3601;SDS011;1815;50.950;6.920;2024-01-10T06:24:38;6.70;;;5.60;;
3601;SDS011;1815;50.950;6.920;2024-01-10T06:27:04;12.37;;;7.33;;
3601;SDS011;1815;50.950;6.920;2024-01-10T06:29:31;11.45;;;7.85;;
3601;SDS011;1815;50.950;6.920;2024-01-10T06:31:57;14.55;;;8.40;;
3601;SDS011;1815;50.950;6.920;2024-01-10T06:34:23;13.57;;;8.73;;
3601;SDS011;1815;50.950;6.920;2024-01-10T06:36:49;14.82;;;8.55;;
3601;SDS011;1815;50.950;6.920;2024-01-10T06:39:15;12.60;;;7.90;;
3601;SDS011;1815;50.950;6.920;2024-01-10T06:41:42;16.05;;;11.13;;
3601;SDS011;1815;50.950;6.920;2024-01-10T06:44:09;13.80;;;9.20;;
3601;SDS011;1815;50.950;6.920;2024-01-10T06:46:34;15.27;;;9.90;;
3601;SDS011;1815;50.950;6.920;2024-01-10T06:49:01;11.48;;;8.32;;
3601;SDS011;1815;50.950;6.920;2024-01-10T06:51:27;12.50;;;8.13;;
3601;SDS011;1815;50.950;6.920;2024-01-10T06:53:53;14.50;;;8.20;;
3601;SDS011;1815;50.950;6.920;2024-01-10T06:56:48;10.85;;;7.10;;
3601;SDS011;1815;50.950;6.920;2024-01-10T06:59:14;11.30;;;7.07;;
3601;SDS011;1815;50.950;6.920;2024-01-10T07:01:40;14.13;;;8.77;;
3601;SDS011;1815;50.950;6.920;2024-01-10T07:04:06;12.53;;;9.23;;
3601;SDS011;1815;50.950;6.920;2024-01-10T07:06:31;10.90;;;8.33;;
3601;SDS011;1815;50.950;6.920;2024-01-10T07:08:57;13.73;;;9.40;;
3601;SDS011;1815;50.950;6.920;2024-01-10T07:11:24;11.48;;;7.78;;
3601;SDS011;1815;50.950;6.920;2024-01-10T07:13:53;11.60;;;8.23;;
3601;SDS011;1815;50.950;6.920;2024-01-10T07:16:19;11.90;;;8.50;;
3601;SDS011;1815;50.950;6.920;2024-01-10T07:18:45;11.20;;;8.37;;
3601;SDS011;1815;50.950;6.920;2024-01-10T07:21:11;12.80;;;8.20;;
3601;SDS011;1815;50.950;6.920;2024-01-10T07:23:37;14.32;;;8.35;;
3601;SDS011;1815;50.950;6.920;2024-01-10T07:26:08;14.02;;;8.13;;
3601;SDS011;1815;50.950;6.920;2024-01-10T07:28:33;15.33;;;7.93;;
3601;SDS011;1815;50.950;6.920;2024-01-10T07:30:59;10.73;;;7.90;;
3601;SDS011;1815;50.950;6.920;2024-01-10T07:33:27;13.95;;;7.90;;
3601;SDS011;1815;50.950;6.920;2024-01-10T07:35:57;12.80;;;8.73;;
3601;SDS011;1815;50.950;6.920;2024-01-10T07:38:23;13.00;;;9.02;;
3601;SDS011;1815;50.950;6.920;2024-01-10T07:40:48;12.63;;;8.53;;
3601;SDS011;1815;50.950;6.920;2024-01-10T07:43:14;15.37;;;7.77;;
3601;SDS011;1815;50.950;6.920;2024-01-10T07:45:40;12.20;;;8.73;;
3601;SDS011;1815;50.950;6.920;2024-01-10T07:48:06;12.50;;;8.67;;
3601;SDS011;1815;50.950;6.920;2024-01-10T07:50:32;11.73;;;7.82;;
3601;SDS011;1815;50.950;6.920;2024-01-10T07:52:58;13.40;;;8.97;;
3601;SDS011;1815;50.950;6.920;2024-01-10T07:55:23;10.43;;;7.73;;
3601;SDS011;1815;50.950;6.920;2024-01-10T07:57:49;10.97;;;8.63;;
3601;SDS011;1815;50.950;6.920;2024-01-10T08:00:15;13.03;;;8.10;;
3601;SDS011;1815;50.950;6.920;2024-01-10T08:02:41;13.93;;;9.15;;
3601;SDS011;1815;50.950;6.920;2024-01-10T08:05:07;13.27;;;8.33;;
3601;SDS011;1815;50.950;6.920;2024-01-10T08:07:36;13.63;;;7.95;;
3601;SDS011;1815;50.950;6.920;2024-01-10T08:10:11;13.40;;;8.90;;
3601;SDS011;1815;50.950;6.920;2024-01-10T08:12:38;14.73;;;8.80;;
3601;SDS011;1815;50.950;6.920;2024-01-10T08:15:04;13.00;;;8.00;;
3601;SDS011;1815;50.950;6.920;2024-01-10T08:17:31;14.50;;;7.65;;
3601;SDS011;1815;50.950;6.920;2024-01-10T08:19:58;13.55;;;6.75;;
3601;SDS011;1815;50.950;6.920;2024-01-10T08:22:26;13.45;;;8.07;;
3601;SDS011;1815;50.950;6.920;2024-01-10T08:24:52;14.77;;;7.70;;
3601;SDS011;1815;50.950;6.920;2024-01-10T08:27:18;11.80;;;7.20;;
3601;SDS011;1815;50.950;6.920;2024-01-10T08:29:43;11.27;;;6.77;;
3601;SDS011;1815;50.950;6.920;2024-01-10T08:32:10;11.98;;;7.63;;
3601;SDS011;1815;50.950;6.920;2024-01-10T08:34:36;12.52;;;7.55;;
3601;SDS011;1815;50.950;6.920;2024-01-10T08:37:02;11.77;;;7.47;;
3601;SDS011;1815;50.950;6.920;2024-01-10T08:39:28;12.32;;;7.50;;
3601;SDS011;1815;50.950;6.920;2024-01-10T08:41:56;11.48;;;7.50;;
3601;SDS011;1815;50.950;6.920;2024-01-10T08:44:22;11.18;;;7.68;;
3601;SDS011;1815;50.950;6.920;2024-01-10T08:46:48;11.33;;;7.87;;
3601;SDS011;1815;50.950;6.920;2024-01-10T08:49:16;11.70;;;8.50;;
3601;SDS011;1815;50.950;6.920;2024-01-10T08:51:42;11.88;;;7.38;;
3601;SDS011;1815;50.950;6.920;2024-01-10T08:54:09;11.88;;;8.27;;
3601;SDS011;1815;50.950;6.920;2024-01-10T08:56:34;13.03;;;8.33;;
3601;SDS011;1815;50.950;6.920;2024-01-10T08:59:00;11.77;;;8.07;;
3601;SDS011;1815;50.950;6.920;2024-01-10T09:01:26;13.30;;;8.80;;
3601;SDS011;1815;50.950;6.920;2024-01-10T09:03:52;10.60;;;7.30;;
3601;SDS011;1815;50.950;6.920;2024-01-10T09:06:17;12.07;;;8.07;;
3601;SDS011;1815;50.950;6.920;2024-01-10T09:08:43;14.33;;;9.53;;
3601;SDS011;1815;50.950;6.920;2024-01-10T09:11:09;11.90;;;7.90;;
3601;SDS011;1815;50.950;6.920;2024-01-10T09:13:34;11.60;;;8.30;;
3601;SDS011;1815;50.950;6.920;2024-01-10T09:16:03;11.57;;;7.75;;
3601;SDS011;1815;50.950;6.920;2024-01-10T09:18:29;12.07;;;8.30;;
3601;SDS011;1815;50.950;6.920;2024-01-10T09:20:55;11.20;;;7.47;;
3601;SDS011;1815;50.950;6.920;2024-01-10T09:23:20;11.13;;;7.27;;
3601;SDS011;1815;50.950;6.920;2024-01-10T09:25:46;10.90;;;7.87;;
3601;SDS011;1815;50.950;6.920;2024-01-10T09:28:12;9.75;;;7.22;;
3601;SDS011;1815;50.950;6.920;2024-01-10T09:30:38;11.93;;;7.13;;
3601;SDS011;1815;50.950;6.920;2024-01-10T09:33:04;11.05;;;7.57;;
3601;SDS011;1815;50.950;6.920;2024-01-10T09:35:29;13.97;;;6.93;;
3601;SDS011;1815;50.950;6.920;2024-01-10T09:37:55;9.03;;;6.90;;
3601;SDS011;1815;50.950;6.920;2024-01-10T09:40:21;11.00;;;7.57;;
3601;SDS011;1815;50.950;6.920;2024-01-10T09:42:48;12.27;;;7.85;;
3601;SDS011;1815;50.950;6.920;2024-01-10T09:45:16;12.65;;;7.07;;
3601;SDS011;1815;50.950;6.920;2024-01-10T09:47:44;11.73;;;7.22;;
3601;SDS011;1815;50.950;6.920;2024-01-10T09:50:13;11.45;;;7.05;;
3601;SDS011;1815;50.950;6.920;2024-01-10T09:52:52;11.15;;;7.20;;
3601;SDS011;1815;50.950;6.920;2024-01-10T09:55:38;11.65;;;7.35;;
3601;SDS011;1815;50.950;6.920;2024-01-10T09:58:07;13.20;;;6.50;;
3601;SDS011;1815;50.950;6.920;2024-01-10T10:00:35;11.60;;;7.55;;
3601;SDS011;1815;50.950;6.920;2024-01-10T10:03:02;13.10;;;7.70;;
3601;SDS011;1815;50.950;6.920;2024-01-10T10:05:29;10.73;;;7.53;;
3601;SDS011;1815;50.950;6.920;2024-01-10T10:07:56;13.02;;;8.20;;
3601;SDS011;1815;50.950;6.920;2024-01-10T10:10:23;13.35;;;8.65;;
3601;SDS011;1815;50.950;6.920;2024-01-10T10:12:50;13.90;;;8.10;;
3601;SDS011;1815;50.950;6.920;2024-01-10T10:15:18;15.05;;;7.78;;
3601;SDS011;1815;50.950;6.920;2024-01-10T10:17:47;11.35;;;7.60;;
3601;SDS011;1815;50.950;6.920;2024-01-10T10:25:32;11.32;;;8.63;;
3601;SDS011;1815;50.950;6.920;2024-01-10T10:28:10;10.55;;;7.88;;
3601;SDS011;1815;50.950;6.920;2024-01-10T10:30:36;15.40;;;9.00;;
3601;SDS011;1815;50.950;6.920;2024-01-10T10:33:02;13.20;;;7.80;;
3601;SDS011;1815;50.950;6.920;2024-01-10T10:35:28;12.07;;;7.57;;
3601;SDS011;1815;50.950;6.920;2024-01-10T10:37:54;17.80;;;8.17;;
3601;SDS011;1815;50.950;6.920;2024-01-10T10:40:20;16.57;;;9.30;;
3601;SDS011;1815;50.950;6.920;2024-01-10T10:42:47;14.52;;;9.55;;
3601;SDS011;1815;50.950;6.920;2024-01-10T10:45:17;12.68;;;9.27;;
3601;SDS011;1815;50.950;6.920;2024-01-10T10:47:45;16.48;;;8.57;;
3601;SDS011;1815;50.950;6.920;2024-01-10T10:50:20;10.60;;;8.07;;
3601;SDS011;1815;50.950;6.920;2024-01-10T10:52:48;12.02;;;8.10;;
3601;SDS011;1815;50.950;6.920;2024-01-10T10:55:15;12.80;;;7.97;;
3601;SDS011;1815;50.950;6.920;2024-01-10T10:57:46;15.07;;;10.40;;
3601;SDS011;1815;50.950;6.920;2024-01-10T11:00:13;12.48;;;8.65;;
3601;SDS011;1815;50.950;6.920;2024-01-10T11:02:43;18.10;;;8.95;;
3601;SDS011;1815;50.950;6.920;2024-01-10T11:05:10;16.55;;;10.15;;
3601;SDS011;1815;50.950;6.920;2024-01-10T11:07:37;13.32;;;8.15;;
3601;SDS011;1815;50.950;6.920;2024-01-10T11:10:04;15.23;;;9.27;;
3601;SDS011;1815;50.950;6.920;2024-01-10T11:15:30;16.60;;;10.00;;
3601;SDS011;1815;50.950;6.920;2024-01-10T11:18:26;13.88;;;8.85;;
3601;SDS011;1815;50.950;6.920;2024-01-10T11:24:14;13.18;;;8.30;;
3601;SDS011;1815;50.950;6.920;2024-01-10T11:26:40;13.23;;;7.93;;
3601;SDS011;1815;50.950;6.920;2024-01-10T11:29:06;16.90;;;9.93;;
3601;SDS011;1815;50.950;6.920;2024-01-10T11:31:32;15.30;;;9.20;;
3601;SDS011;1815;50.950;6.920;2024-01-10T11:34:02;13.27;;;10.38;;
3601;SDS011;1815;50.950;6.920;2024-01-10T11:36:28;15.35;;;10.05;;
3601;SDS011;1815;50.950;6.920;2024-01-10T11:38:58;17.83;;;9.20;;
3601;SDS011;1815;50.950;6.920;2024-01-10T11:41:34;16.40;;;10.10;;
3601;SDS011;1815;50.950;6.920;2024-01-10T11:46:41;14.65;;;9.43;;
3601;SDS011;1815;50.950;6.920;2024-01-10T11:49:08;13.35;;;8.60;;
3601;SDS011;1815;50.950;6.920;2024-01-10T11:51:36;13.27;;;8.27;;
3601;SDS011;1815;50.950;6.920;2024-01-10T11:54:03;14.15;;;9.32;;
3601;SDS011;1815;50.950;6.920;2024-01-10T11:56:39;13.77;;;9.55;;
3601;SDS011;1815;50.950;6.920;2024-01-10T11:59:11;15.63;;;9.65;;
3601;SDS011;1815;50.950;6.920;2024-01-10T12:01:41;13.15;;;8.45;;
3601;SDS011;1815;50.950;6.920;2024-01-10T12:04:07;15.98;;;9.43;;
3601;SDS011;1815;50.950;6.920;2024-01-10T12:06:36;15.63;;;9.30;;
3601;SDS011;1815;50.950;6.920;2024-01-10T12:09:06;16.98;;;8.15;;
3601;SDS011;1815;50.950;6.920;2024-01-10T12:11:35;16.55;;;9.82;;
3601;SDS011;1815;50.950;6.920;2024-01-10T12:14:01;15.25;;;10.38;;
3601;SDS011;1815;50.950;6.920;2024-01-10T12:16:27;19.52;;;10.45;;
3601;SDS011;1815;50.950;6.920;2024-01-10T12:18:54;17.85;;;11.20;;
3601;SDS011;1815;50.950;6.920;2024-01-10T12:21:20;17.10;;;11.43;;
3601;SDS011;1815;50.950;6.920;2024-01-10T12:23:46;20.63;;;9.73;;
3601;SDS011;1815;50.950;6.920;2024-01-10T12:26:13;18.88;;;11.20;;
3601;SDS011;1815;50.950;6.920;2024-01-10T12:28:39;19.50;;;10.83;;
3601;SDS011;1815;50.950;6.920;2024-01-10T12:31:07;18.35;;;9.40;;
3601;SDS011;1815;50.950;6.920;2024-01-10T12:33:34;14.10;;;9.10;;
3601;SDS011;1815;50.950;6.920;2024-01-10T12:36:03;18.20;;;10.50;;
3601;SDS011;1815;50.950;6.920;2024-01-10T12:38:32;16.98;;;9.32;;
3601;SDS011;1815;50.950;6.920;2024-01-10T12:40:58;14.65;;;9.82;;
3601;SDS011;1815;50.950;6.920;2024-01-10T12:43:26;14.40;;;9.63;;
3601;SDS011;1815;50.950;6.920;2024-01-10T12:48:30;15.57;;;8.65;;
3601;SDS011;1815;50.950;6.920;2024-01-10T12:50:57;16.73;;;9.85;;
3601;SDS011;1815;50.950;6.920;2024-01-10T12:53:27;16.17;;;10.70;;
3601;SDS011;1815;50.950;6.920;2024-01-10T12:55:54;16.88;;;10.52;;
3601;SDS011;1815;50.950;6.920;2024-01-10T12:58:20;15.63;;;10.80;;
3601;SDS011;1815;50.950;6.920;2024-01-10T13:00:46;16.13;;;10.20;;
3601;SDS011;1815;50.950;6.920;2024-01-10T13:03:12;14.60;;;9.50;;
3601;SDS011;1815;50.950;6.920;2024-01-10T13:05:38;15.05;;;9.00;;
3601;SDS011;1815;50.950;6.920;2024-01-10T13:08:04;17.60;;;10.80;;
3601;SDS011;1815;50.950;6.920;2024-01-10T13:10:31;16.77;;;10.98;;
3601;SDS011;1815;50.950;6.920;2024-01-10T13:12:56;11.77;;;8.37;;
3601;SDS011;1815;50.950;6.920;2024-01-10T13:15:22;13.97;;;10.50;;
3601;SDS011;1815;50.950;6.920;2024-01-10T13:17:48;14.80;;;9.30;;
3601;SDS011;1815;50.950;6.920;2024-01-10T13:20:14;14.32;;;7.95;;
3601;SDS011;1815;50.950;6.920;2024-01-10T13:22:40;17.40;;;11.30;;
3601;SDS011;1815;50.950;6.920;2024-01-10T13:25:06;15.10;;;8.80;;
3601;SDS011;1815;50.950;6.920;2024-01-10T13:27:32;14.27;;;9.52;;
3601;SDS011;1815;50.950;6.920;2024-01-10T13:29:57;15.20;;;7.63;;
3601;SDS011;1815;50.950;6.920;2024-01-10T13:32:23;14.50;;;10.10;;
3601;SDS011;1815;50.950;6.920;2024-01-10T13:34:51;14.32;;;9.20;;
3601;SDS011;1815;50.950;6.920;2024-01-10T13:37:18;17.07;;;11.13;;
3601;SDS011;1815;50.950;6.920;2024-01-10T13:39:44;19.50;;;12.50;;
3601;SDS011;1815;50.950;6.920;2024-01-10T13:42:10;18.20;;;10.77;;
3601;SDS011;1815;50.950;6.920;2024-01-10T13:44:36;16.63;;;10.47;;
3601;SDS011;1815;50.950;6.920;2024-01-10T13:47:02;14.15;;;9.25;;
3601;SDS011;1815;50.950;6.920;2024-01-10T13:49:28;19.42;;;9.77;;
3601;SDS011;1815;50.950;6.920;2024-01-10T13:51:54;13.87;;;8.70;;
3601;SDS011;1815;50.950;6.920;2024-01-10T13:54:20;15.90;;;10.17;;
3601;SDS011;1815;50.950;6.920;2024-01-10T13:56:47;16.33;;;10.55;;
3601;SDS011;1815;50.950;6.920;2024-01-10T13:59:12;15.10;;;11.20;;
3601;SDS011;1815;50.950;6.920;2024-01-10T14:01:38;16.10;;;9.30;;
3601;SDS011;1815;50.950;6.920;2024-01-10T14:04:05;11.77;;;8.88;;
3601;SDS011;1815;50.950;6.920;2024-01-10T14:06:31;14.15;;;8.27;;
3601;SDS011;1815;50.950;6.920;2024-01-10T14:08:57;18.53;;;10.07;;
3601;SDS011;1815;50.950;6.920;2024-01-10T14:11:23;13.30;;;9.30;;
3601;SDS011;1815;50.950;6.920;2024-01-10T14:13:49;12.13;;;9.27;;
3601;SDS011;1815;50.950;6.920;2024-01-10T14:16:17;12.52;;;9.23;;
3601;SDS011;1815;50.950;6.920;2024-01-10T14:18:43;16.27;;;10.37;;
3601;SDS011;1815;50.950;6.920;2024-01-10T14:21:09;12.93;;;8.40;;
3601;SDS011;1815;50.950;6.920;2024-01-10T14:23:34;12.50;;;9.20;;
3601;SDS011;1815;50.950;6.920;2024-01-10T14:26:01;18.83;;;9.95;;
3601;SDS011;1815;50.950;6.920;2024-01-10T14:28:26;14.63;;;10.60;;
3601;SDS011;1815;50.950;6.920;2024-01-10T14:30:52;13.57;;;9.27;;
3601;SDS011;1815;50.950;6.920;2024-01-10T14:33:18;13.60;;;9.03;;
3601;SDS011;1815;50.950;6.920;2024-01-10T14:35:43;12.93;;;8.97;;
3601;SDS011;1815;50.950;6.920;2024-01-10T14:38:09;14.98;;;8.07;;
3601;SDS011;1815;50.950;6.920;2024-01-10T14:40:35;12.90;;;8.93;;
3601;SDS011;1815;50.950;6.920;2024-01-10T14:43:01;16.00;;;10.00;;
3601;SDS011;1815;50.950;6.920;2024-01-10T14:45:26;13.40;;;9.20;;
3601;SDS011;1815;50.950;6.920;2024-01-10T14:47:52;13.00;;;8.55;;
3601;SDS011;1815;50.950;6.920;2024-01-10T14:50:18;13.50;;;8.47;;
3601;SDS011;1815;50.950;6.920;2024-01-10T14:52:44;12.20;;;9.10;;
3601;SDS011;1815;50.950;6.920;2024-01-10T14:55:10;13.93;;;9.18;;
3601;SDS011;1815;50.950;6.920;2024-01-10T14:57:36;11.33;;;7.20;;
3601;SDS011;1815;50.950;6.920;2024-01-10T15:00:02;18.13;;;10.20;;
3601;SDS011;1815;50.950;6.920;2024-01-10T15:02:28;13.70;;;9.23;;
3601;SDS011;1815;50.950;6.920;2024-01-10T15:04:54;12.30;;;8.57;;
3601;SDS011;1815;50.950;6.920;2024-01-10T15:07:19;14.00;;;8.37;;
3601;SDS011;1815;50.950;6.920;2024-01-10T15:09:46;14.27;;;8.80;;
3601;SDS011;1815;50.950;6.920;2024-01-10T15:12:11;16.33;;;9.90;;
3601;SDS011;1815;50.950;6.920;2024-01-10T15:14:37;11.80;;;7.50;;
3601;SDS011;1815;50.950;6.920;2024-01-10T15:17:04;9.35;;;6.55;;
3601;SDS011;1815;50.950;6.920;2024-01-10T15:19:33;12.10;;;8.50;;